createdAt,value
2023-05-08T00:00:47.167Z,94.02
2023-05-08T00:03:14.054Z,94.61
2023-05-08T00:05:43.595Z,94.86
2023-05-08T00:08:10.326Z,95.23
2023-05-08T00:10:37.290Z,95.27
2023-05-08T00:13:03.946Z,95.61
2023-05-08T00:15:30.609Z,95.83
2023-05-08T00:17:57.559Z,95.62
2023-05-08T00:20:24.329Z,96.10
2023-05-08T00:22:50.912Z,96.34
2023-05-08T00:25:17.662Z,96.84
2023-05-08T00:27:44.228Z,97.01
2023-05-08T00:30:11.507Z,96.51
2023-05-08T00:32:38.398Z,96.19
2023-05-08T00:35:05.329Z,96.42
2023-05-08T00:37:31.959Z,96.38
2023-05-08T00:39:58.554Z,96.37
2023-05-08T00:42:25.228Z,96.61
2023-05-08T00:44:52.401Z,96.70
2023-05-08T00:47:22.437Z,96.76
2023-05-08T00:49:49.380Z,97.19
2023-05-08T00:52:17.506Z,97.39
2023-05-08T00:54:44.826Z,97.25
2023-05-08T00:57:12.617Z,97.28
2023-05-08T00:59:41.515Z,97.38
2023-05-08T01:02:08.884Z,97.75
2023-05-08T01:04:37.170Z,97.69
2023-05-08T01:07:03.790Z,97.98
2023-05-08T01:09:30.521Z,97.70
2023-05-08T01:11:59.871Z,97.75
2023-05-08T01:14:57.145Z,97.59
2023-05-08T01:17:43.373Z,97.52
2023-05-08T01:20:30.231Z,97.31
2023-05-08T01:23:17.517Z,97.51
2023-05-08T01:26:22.227Z,97.04
2023-05-08T01:29:12.035Z,97.22
2023-05-08T01:32:12.516Z,97.17
2023-05-08T01:34:51.993Z,97.23
2023-05-08T01:37:27.833Z,96.71
2023-05-08T01:40:30.031Z,95.84
2023-05-08T01:43:27.592Z,95.88
2023-05-08T01:45:56.575Z,95.65
2023-05-08T01:48:30.585Z,95.80
2023-05-08T01:51:04.797Z,95.88
2023-05-08T01:53:37.180Z,96.43
2023-05-08T01:56:11.221Z,96.49
2023-05-08T01:58:39.278Z,95.96
2023-05-08T02:01:06.258Z,95.33
2023-05-08T02:03:34.353Z,95.00
2023-05-08T02:06:02.397Z,94.90
2023-05-08T02:08:31.266Z,95.48
2023-05-08T02:11:01.010Z,95.67
2023-05-08T02:13:29.991Z,95.40
2023-05-08T02:15:59.101Z,95.26
2023-05-08T02:18:28.415Z,95.62
2023-05-08T02:20:56.911Z,95.98
2023-05-08T02:23:26.747Z,96.36
2023-05-08T02:25:54.673Z,96.40
2023-05-08T02:28:24.043Z,96.56
2023-05-08T02:30:52.644Z,96.43
2023-05-08T02:33:20.793Z,96.23
2023-05-08T02:35:50.662Z,96.21
2023-05-08T02:38:20.789Z,96.31
2023-05-08T02:40:55.653Z,96.34
2023-05-08T02:43:22.371Z,96.54
2023-05-08T02:45:58.331Z,96.12
2023-05-08T02:48:33.941Z,95.84
2023-05-08T02:51:18.368Z,96.10
2023-05-08T02:53:56.658Z,96.32
2023-05-08T02:56:58.284Z,96.39
2023-05-08T02:59:39.826Z,96.37
2023-05-08T03:02:09.476Z,96.15
2023-05-08T03:04:41.349Z,95.77
2023-05-08T03:07:08.328Z,95.71
2023-05-08T03:09:52.098Z,95.47
2023-05-08T03:12:23.597Z,95.24
2023-05-08T03:15:00.181Z,95.02
2023-05-08T03:17:31.330Z,94.69
2023-05-08T03:20:02.688Z,94.63
2023-05-08T03:22:31.445Z,94.51
2023-05-08T03:25:01.536Z,94.72
2023-05-08T03:27:29.978Z,94.92
2023-05-08T03:29:58.030Z,94.80
2023-05-08T03:32:27.677Z,94.78
2023-05-08T03:34:55.915Z,94.83
2023-05-08T03:37:22.589Z,95.05
2023-05-08T03:39:49.330Z,94.79
2023-05-08T03:42:21.477Z,94.65
2023-05-08T03:44:52.550Z,94.07
2023-05-08T03:47:20.217Z,94.22
2023-05-08T03:49:48.084Z,94.59
2023-05-08T03:52:15.327Z,94.65
2023-05-08T03:54:42.186Z,94.27
2023-05-08T03:57:09.320Z,94.01
2023-05-08T04:00:03.682Z,93.63
2023-05-08T04:02:40.715Z,93.97
2023-05-08T04:05:25.397Z,94.09
2023-05-08T04:08:09.702Z,93.92
2023-05-08T04:10:44.414Z,93.79
2023-05-08T04:13:14.589Z,93.41
2023-05-08T04:15:52.998Z,93.29
2023-05-08T04:18:28.290Z,93.02
2023-05-08T04:20:56.322Z,92.44
2023-05-08T04:23:24.906Z,92.41
2023-05-08T04:25:53.392Z,92.28
2023-05-08T04:28:21.796Z,92.39
2023-05-08T04:30:49.512Z,92.58
2023-05-08T04:33:18.690Z,92.53
2023-05-08T04:35:46.358Z,92.63
2023-05-08T04:38:12.952Z,93.05
2023-05-08T04:40:39.565Z,93.22
2023-05-08T04:43:06.531Z,93.13
2023-05-08T04:45:36.000Z,93.33
2023-05-08T04:48:02.709Z,93.29
2023-05-08T04:50:29.474Z,93.52
2023-05-08T04:52:57.344Z,93.23
2023-05-08T04:55:23.986Z,93.07
2023-05-08T04:57:50.641Z,92.85
2023-05-08T05:00:17.640Z,92.63
2023-05-08T05:02:44.328Z,91.99
2023-05-08T05:05:11.650Z,92.04
2023-05-08T05:07:38.786Z,91.77
2023-05-08T05:10:05.822Z,91.85
2023-05-08T05:12:32.476Z,91.87
2023-05-08T05:14:59.182Z,91.42
2023-05-08T05:17:25.853Z,90.78
2023-05-08T05:19:53.545Z,90.11
2023-05-08T05:22:20.212Z,89.92
2023-05-08T05:24:46.985Z,89.65
2023-05-08T05:27:13.671Z,89.87
2023-05-08T05:29:40.357Z,90.27
2023-05-08T05:32:07.532Z,90.19
2023-05-08T05:34:34.256Z,90.06
2023-05-08T05:37:01.182Z,89.70
2023-05-08T05:39:27.768Z,89.77
2023-05-08T05:41:54.488Z,89.84
2023-05-08T05:44:21.095Z,89.53
2023-05-08T05:46:47.719Z,89.11
2023-05-08T05:49:14.522Z,89.13
2023-05-08T05:51:41.372Z,88.53
2023-05-08T05:54:07.994Z,87.73
2023-05-08T05:56:34.557Z,87.12
2023-05-08T05:59:01.289Z,86.43
2023-05-08T06:01:29.218Z,85.43
2023-05-08T06:03:56.003Z,84.91
2023-05-08T06:06:22.745Z,84.23
2023-05-08T06:08:49.418Z,83.05
2023-05-08T06:11:16.074Z,82.77
2023-05-08T06:13:44.038Z,82.85
2023-05-08T06:16:10.702Z,83.40
2023-05-08T06:18:37.347Z,83.62
2023-05-08T06:21:04.174Z,84.05
2023-05-08T06:23:31.153Z,83.73
2023-05-08T06:25:57.750Z,83.67
2023-05-08T06:28:26.265Z,83.79
2023-05-08T06:30:53.166Z,83.56
2023-05-08T06:33:19.977Z,83.58
2023-05-08T06:35:49.672Z,83.47
2023-05-08T06:38:16.815Z,83.68
2023-05-08T06:40:44.668Z,84.01
2023-05-08T06:43:12.337Z,83.97
2023-05-08T06:45:39.998Z,83.87
2023-05-08T06:48:08.204Z,83.72
2023-05-08T06:50:38.610Z,83.40
2023-05-08T06:53:05.551Z,83.26
2023-05-08T06:55:32.154Z,83.18
2023-05-08T06:57:58.914Z,83.37
2023-05-08T07:00:25.713Z,83.35
2023-05-08T07:02:52.457Z,82.75
2023-05-08T07:05:20.200Z,81.92
2023-05-08T07:07:47.023Z,81.14
2023-05-08T07:10:13.977Z,79.62
2023-05-08T07:12:43.009Z,78.85
2023-05-08T07:15:23.960Z,77.92
2023-05-08T07:17:51.865Z,78.22
2023-05-08T07:20:18.528Z,78.38
2023-05-08T07:22:45.128Z,79.26
2023-05-08T07:25:12.826Z,78.84
2023-05-08T07:27:39.741Z,78.67
2023-05-08T07:30:07.027Z,78.41
2023-05-08T07:32:33.839Z,77.75
2023-05-08T07:35:02.715Z,77.33
2023-05-08T07:37:29.552Z,76.37
2023-05-08T07:39:56.281Z,76.29
2023-05-08T07:42:22.902Z,75.93
2023-05-08T07:44:54.978Z,75.64
2023-05-08T07:47:22.442Z,75.43
2023-05-08T07:49:49.190Z,75.30
2023-05-08T07:52:15.828Z,74.91
2023-05-08T07:54:42.772Z,74.64
2023-05-08T07:57:09.510Z,74.49
2023-05-08T07:59:36.137Z,74.26
2023-05-08T08:02:02.868Z,74.63
2023-05-08T08:04:29.681Z,73.60
2023-05-08T08:06:56.415Z,73.10
2023-05-08T08:09:23.044Z,71.84
2023-05-08T08:11:49.826Z,71.12
2023-05-08T08:14:16.551Z,71.27
2023-05-08T08:16:43.581Z,71.02
2023-05-08T08:19:10.957Z,70.34
2023-05-08T08:21:42.720Z,69.33
2023-05-08T08:24:11.663Z,68.94
2023-05-08T08:26:38.370Z,67.91
2023-05-08T08:29:05.032Z,67.27
2023-05-08T08:31:31.810Z,66.13
2023-05-08T08:33:58.573Z,66.09
2023-05-08T08:36:25.301Z,66.75
2023-05-08T08:38:52.277Z,66.09
2023-05-08T08:41:19.271Z,64.21
2023-05-08T08:43:46.123Z,64.76
2023-05-08T08:46:15.375Z,65.44
2023-05-08T08:48:46.642Z,65.20
2023-05-08T08:51:23.888Z,64.31
2023-05-08T08:53:59.754Z,64.14
2023-05-08T08:56:27.801Z,64.23
2023-05-08T08:58:59.566Z,63.45
2023-05-08T09:01:29.413Z,63.41
2023-05-08T09:03:59.895Z,62.50
2023-05-08T09:06:27.724Z,60.98
2023-05-08T09:09:00.822Z,59.36
2023-05-08T09:11:28.096Z,58.83
2023-05-08T09:13:55.748Z,58.48
2023-05-08T09:16:22.938Z,58.02
2023-05-08T09:18:49.795Z,59.37
2023-05-08T09:21:16.474Z,61.57
2023-05-08T09:24:03.704Z,62.88
2023-05-08T09:26:39.052Z,62.16
2023-05-08T09:29:16.753Z,64.08
2023-05-08T09:31:45.775Z,65.10
2023-05-08T09:34:27.112Z,65.17
2023-05-08T09:37:12.101Z,65.39
2023-05-08T09:39:45.688Z,65.17
2023-05-08T09:42:12.656Z,64.87
2023-05-08T09:44:57.468Z,65.05
2023-05-08T09:47:25.305Z,65.96
2023-05-08T09:50:08.996Z,66.29
2023-05-08T09:52:37.397Z,66.17
2023-05-08T09:55:09.644Z,65.88
2023-05-08T09:57:39.434Z,65.53
2023-05-08T10:00:10.264Z,64.40
2023-05-08T10:02:38.942Z,63.84
2023-05-08T10:05:27.610Z,64.24
2023-05-08T10:07:54.431Z,63.57
2023-05-08T10:10:28.033Z,63.96
2023-05-08T10:12:56.444Z,62.73
2023-05-08T10:15:30.107Z,61.20
2023-05-08T10:18:06.131Z,60.65
2023-05-08T10:20:34.433Z,60.07
2023-05-08T10:23:03.615Z,59.49
2023-05-08T10:25:34.808Z,59.70
2023-05-08T10:28:18.104Z,59.17
2023-05-08T10:30:48.943Z,58.79
2023-05-08T10:33:20.975Z,58.75
2023-05-08T10:35:48.889Z,59.00
2023-05-08T10:38:16.923Z,59.30
2023-05-08T10:40:43.836Z,61.26
2023-05-08T10:43:12.535Z,60.80
2023-05-08T10:45:39.547Z,60.54
2023-05-08T10:48:33.309Z,60.65
2023-05-08T10:51:12.774Z,60.49
2023-05-08T10:54:06.542Z,58.97
2023-05-08T10:56:33.356Z,60.10
2023-05-08T10:58:59.964Z,58.94
2023-05-08T11:01:26.824Z,59.32
2023-05-08T11:03:56.100Z,58.82
2023-05-08T11:06:46.607Z,58.67
2023-05-08T11:09:21.438Z,59.15
2023-05-08T11:11:59.272Z,58.10
2023-05-08T11:14:27.072Z,57.46
2023-05-08T11:16:53.721Z,58.37
2023-05-08T11:19:22.213Z,58.33
2023-05-08T11:22:24.061Z,58.49
2023-05-08T11:24:56.393Z,57.35
2023-05-08T11:28:00.864Z,58.37
2023-05-08T11:30:34.889Z,57.79
2023-05-08T11:33:05.235Z,56.50
2023-05-08T11:35:42.260Z,58.30
2023-05-08T11:38:17.086Z,58.18
2023-05-08T11:40:53.273Z,58.30
2023-05-08T11:43:37.704Z,58.07
2023-05-08T11:46:08.492Z,57.09
2023-05-08T11:48:36.031Z,57.77
2023-05-08T11:51:03.895Z,58.16
2023-05-08T11:53:31.470Z,57.90
2023-05-08T11:55:59.838Z,57.61
2023-05-08T11:58:26.869Z,56.86
2023-05-08T12:00:54.761Z,56.59
2023-05-08T12:03:23.232Z,57.59
2023-05-08T12:05:50.577Z,57.80
2023-05-08T12:08:18.754Z,58.40
2023-05-08T12:10:56.920Z,60.43
2023-05-08T12:13:26.093Z,61.61
2023-05-08T12:15:58.199Z,62.58
2023-05-08T12:18:26.544Z,63.26
2023-05-08T12:20:58.536Z,64.64
2023-05-08T12:23:26.533Z,68.50
2023-05-08T12:25:56.548Z,72.82
2023-05-08T12:28:23.145Z,77.74
2023-05-08T12:30:50.235Z,81.25
2023-05-08T12:33:18.653Z,82.89
2023-05-08T12:35:45.422Z,83.97
2023-05-08T12:38:12.523Z,84.78
2023-05-08T12:40:47.814Z,87.56
2023-05-08T12:43:14.918Z,89.50
2023-05-08T12:45:43.002Z,90.02
2023-05-08T12:48:12.137Z,90.17
2023-05-08T12:50:43.375Z,89.31
2023-05-08T12:53:11.461Z,90.17
2023-05-08T12:55:40.293Z,90.11
2023-05-08T12:58:15.584Z,89.96
2023-05-08T13:00:52.002Z,89.37
2023-05-08T13:03:25.716Z,87.53
2023-05-08T13:05:54.135Z,85.58
2023-05-08T13:08:21.123Z,86.70
2023-05-08T13:10:51.931Z,87.16
2023-05-08T13:13:20.427Z,86.74
2023-05-08T13:15:57.473Z,85.17
2023-05-08T13:18:26.997Z,84.61
2023-05-08T13:20:57.252Z,84.47
2023-05-08T13:23:24.439Z,85.09
2023-05-08T13:25:51.528Z,84.75
2023-05-08T13:28:18.103Z,84.43
2023-05-08T13:30:44.648Z,84.74
2023-05-08T13:33:11.491Z,84.58
2023-05-08T13:35:38.705Z,83.57
2023-05-08T13:38:06.131Z,82.77
2023-05-08T13:40:32.893Z,80.31
2023-05-08T13:42:59.553Z,78.53
2023-05-08T13:45:26.519Z,78.77
2023-05-08T13:47:53.299Z,77.05
2023-05-08T13:50:25.211Z,75.94
2023-05-08T13:52:54.738Z,75.37
2023-05-08T13:55:23.450Z,76.03
2023-05-08T13:57:50.630Z,74.98
2023-05-08T14:00:18.210Z,75.46
2023-05-08T14:02:45.012Z,76.21
2023-05-08T14:05:12.147Z,75.77
2023-05-08T14:07:46.742Z,76.04
2023-05-08T14:10:13.432Z,75.17
2023-05-08T14:12:40.523Z,74.91
2023-05-08T14:15:07.963Z,74.67
2023-05-08T14:17:34.702Z,74.48
2023-05-08T14:20:01.280Z,74.27
2023-05-08T14:22:28.032Z,73.84
2023-05-08T14:24:54.677Z,74.18
2023-05-08T14:27:21.918Z,74.68
2023-05-08T14:29:48.780Z,75.56
2023-05-08T14:32:15.505Z,77.59
2023-05-08T14:34:42.289Z,77.54
2023-05-08T14:37:08.918Z,77.50
2023-05-08T14:39:35.622Z,78.87
2023-05-08T14:42:18.242Z,79.08
2023-05-08T14:44:49.230Z,79.26
2023-05-08T14:47:16.054Z,79.26
2023-05-08T14:49:42.790Z,78.41
2023-05-08T14:52:09.490Z,79.52
2023-05-08T14:54:36.272Z,78.59
2023-05-08T14:57:03.070Z,79.69
2023-05-08T14:59:29.796Z,79.79
2023-05-08T15:01:56.467Z,80.24
2023-05-08T15:04:23.413Z,81.46
2023-05-08T15:06:50.163Z,81.14
2023-05-08T15:09:17.104Z,81.16
2023-05-08T15:11:44.046Z,80.67
2023-05-08T15:14:10.710Z,80.08
2023-05-08T15:16:37.547Z,78.93
2023-05-08T15:19:04.368Z,78.85
2023-05-08T15:21:31.195Z,78.89
2023-05-08T15:23:57.862Z,78.07
2023-05-08T15:26:24.571Z,78.15
2023-05-08T15:28:51.505Z,77.73
2023-05-08T15:31:18.470Z,77.63
2023-05-08T15:33:45.702Z,77.20
2023-05-08T15:36:15.570Z,77.09
2023-05-08T15:38:42.577Z,77.03
2023-05-08T15:41:15.400Z,77.19
2023-05-08T15:43:43.004Z,76.97
2023-05-08T15:46:09.972Z,77.30
2023-05-08T15:48:36.692Z,76.47
2023-05-08T15:51:03.509Z,78.21
2023-05-08T15:53:30.389Z,78.28
2023-05-08T15:55:57.438Z,77.71
2023-05-08T15:58:24.184Z,77.88
2023-05-08T16:00:55.835Z,77.92
2023-05-08T16:03:22.704Z,77.30
2023-05-08T16:05:49.756Z,77.75
2023-05-08T16:08:16.411Z,77.69
2023-05-08T16:10:56.965Z,77.51
2023-05-08T16:13:47.632Z,77.95
2023-05-08T16:16:14.677Z,78.03
2023-05-08T16:18:41.336Z,77.91
2023-05-08T16:24:45.856Z,77.95
2023-05-08T16:27:23.705Z,77.95
2023-05-08T16:29:50.305Z,77.56
2023-05-08T16:32:30.701Z,77.00
2023-05-08T16:35:00.496Z,76.38
2023-05-08T16:37:28.681Z,77.00
2023-05-08T16:40:02.094Z,77.44
2023-05-08T16:42:29.262Z,78.03
2023-05-08T16:44:55.853Z,77.97
2023-05-08T16:47:22.601Z,78.34
2023-05-08T16:50:01.927Z,78.82
2023-05-08T16:52:49.999Z,78.59
2023-05-08T16:55:16.798Z,78.44
2023-05-08T16:57:50.227Z,78.42
2023-05-08T17:00:28.641Z,78.67
2023-05-08T17:02:58.526Z,78.19
2023-05-08T17:05:54.603Z,77.75
2023-05-08T17:08:21.098Z,77.78
2023-05-08T17:10:47.552Z,77.98
2023-05-08T17:15:40.561Z,77.79
2023-05-08T17:18:07.180Z,77.35
2023-05-08T17:20:40.755Z,77.64
2023-05-08T17:23:07.473Z,77.61
2023-05-08T17:25:33.921Z,77.45
2023-05-08T17:30:48.215Z,77.15
2023-05-08T17:36:30.681Z,76.63
2023-05-08T17:38:57.178Z,76.23
2023-05-08T17:41:23.695Z,75.78
2023-05-08T17:46:39.678Z,75.30
2023-05-08T17:49:06.388Z,74.96
2023-05-08T17:51:33.422Z,74.62
2023-05-08T17:54:24.763Z,74.49
2023-05-08T17:56:51.387Z,74.71
2023-05-08T17:59:17.881Z,75.07
2023-05-08T18:01:44.392Z,75.79
2023-05-08T18:04:12.931Z,76.29
2023-05-08T18:06:39.582Z,76.15
2023-05-08T18:09:06.140Z,75.64
2023-05-08T18:11:35.529Z,75.53
2023-05-08T18:14:02.264Z,75.61
2023-05-08T18:16:28.853Z,75.24
2023-05-08T18:19:04.005Z,75.36
2023-05-08T18:21:31.664Z,74.86
2023-05-08T18:23:59.268Z,75.28
2023-05-08T18:26:25.935Z,75.50
2023-05-08T18:28:52.492Z,75.36
2023-05-08T18:31:19.311Z,75.37
2023-05-08T18:33:45.900Z,74.73
2023-05-08T18:36:26.759Z,74.92
2023-05-08T18:38:53.346Z,74.49
2023-05-08T18:41:20.149Z,74.50
2023-05-08T18:43:47.006Z,74.29
2023-05-08T18:46:30.252Z,74.61
2023-05-08T18:48:56.974Z,74.58
2023-05-08T18:51:23.499Z,74.53
2023-05-08T18:53:50.030Z,74.90
2023-05-08T18:56:21.138Z,74.65
2023-05-08T18:58:47.666Z,75.11
2023-05-08T19:01:16.409Z,74.96
2023-05-08T19:03:43.072Z,74.36
2023-05-08T19:09:05.453Z,75.02
2023-05-08T19:11:31.970Z,75.49
2023-05-08T19:13:58.754Z,75.45
2023-05-08T19:16:25.537Z,75.92
2023-05-08T19:19:02.829Z,75.88
2023-05-08T19:21:29.531Z,75.81
2023-05-08T19:23:56.096Z,75.44
2023-05-08T19:26:22.908Z,75.71
2023-05-08T19:28:49.365Z,75.76
2023-05-08T19:31:15.960Z,75.88
2023-05-08T19:33:44.046Z,76.11
2023-05-08T19:36:10.550Z,76.05
2023-05-08T19:38:40.083Z,76.37
2023-05-08T19:41:07.118Z,76.57
2023-05-08T19:43:33.591Z,76.67
2023-05-08T19:46:02.812Z,77.25
2023-05-08T19:48:35.202Z,77.24
2023-05-08T19:51:08.462Z,77.84
2023-05-08T19:53:35.069Z,77.78
2023-05-08T19:56:01.533Z,77.82
2023-05-08T19:58:28.053Z,78.40
2023-05-08T20:00:54.643Z,79.01
2023-05-08T20:03:21.285Z,78.44
2023-05-08T20:05:48.005Z,78.94
2023-05-08T20:08:14.624Z,79.39
2023-05-08T20:10:41.197Z,79.71
2023-05-08T20:13:07.784Z,79.29
2023-05-08T20:15:34.241Z,79.82
2023-05-08T20:18:00.725Z,79.43
2023-05-08T20:20:31.462Z,79.31
2023-05-08T20:22:58.142Z,79.60
2023-05-08T20:25:24.662Z,79.65
2023-05-08T20:27:51.205Z,79.89
2023-05-08T20:30:17.815Z,79.37
2023-05-08T20:32:44.450Z,79.52
2023-05-08T20:35:11.130Z,79.85
2023-05-08T20:37:44.631Z,80.52
2023-05-08T20:40:11.760Z,81.26
2023-05-08T20:42:38.766Z,80.99
2023-05-08T20:45:05.461Z,81.76
2023-05-08T20:47:32.082Z,81.53
2023-05-08T20:49:58.626Z,80.94
2023-05-08T20:52:25.148Z,80.65
2023-05-08T20:54:51.619Z,80.77
2023-05-08T20:57:18.453Z,81.18
2023-05-08T20:59:47.327Z,81.36
2023-05-08T21:02:14.001Z,82.22
2023-05-08T21:04:40.626Z,82.81
2023-05-08T21:07:07.197Z,82.91
2023-05-08T21:09:33.724Z,83.91
2023-05-08T21:12:00.708Z,83.74
2023-05-08T21:14:27.248Z,84.73
2023-05-08T21:16:56.500Z,85.09
2023-05-08T21:19:23.795Z,85.14
2023-05-08T21:21:50.249Z,84.48
2023-05-08T21:24:16.811Z,83.84
2023-05-08T21:26:43.448Z,83.71
2023-05-08T21:29:10.918Z,83.98
2023-05-08T21:31:37.501Z,84.00
2023-05-08T21:34:04.059Z,84.61
2023-05-08T21:36:32.162Z,84.87
2023-05-08T21:38:58.700Z,85.32
2023-05-08T21:41:25.192Z,84.93
2023-05-08T21:43:51.682Z,85.06
2023-05-08T21:46:18.223Z,85.19
2023-05-08T21:48:44.784Z,84.81
2023-05-08T21:51:11.299Z,85.05
2023-05-08T21:53:37.792Z,85.44
2023-05-08T21:56:04.359Z,85.64
2023-05-08T21:58:30.999Z,85.67
2023-05-08T22:00:58.661Z,85.13
2023-05-08T22:03:25.515Z,85.03
2023-05-08T22:05:52.140Z,84.61
2023-05-08T22:08:18.631Z,84.38
2023-05-08T22:10:46.312Z,83.57
2023-05-08T22:13:15.368Z,83.32
2023-05-08T22:15:42.848Z,83.19
2023-05-08T22:18:09.466Z,83.29
2023-05-08T22:20:36.055Z,83.26
2023-05-08T22:23:02.784Z,83.89
2023-05-08T22:25:29.443Z,83.88
2023-05-08T22:27:56.109Z,84.07
2023-05-08T22:30:23.868Z,84.16
2023-05-08T22:32:55.975Z,84.26
2023-05-08T22:35:24.445Z,84.42
2023-05-08T22:37:52.424Z,84.18
2023-05-08T22:40:19.276Z,84.05
2023-05-08T22:42:46.459Z,84.14
2023-05-08T22:45:15.332Z,84.26
2023-05-08T22:47:42.469Z,84.50
2023-05-08T22:50:12.490Z,84.53
2023-05-08T22:52:39.546Z,84.63
2023-05-08T22:55:06.509Z,84.48
2023-05-08T22:57:33.037Z,84.59
2023-05-08T22:59:59.503Z,84.62
2023-05-08T23:02:31.211Z,84.99
2023-05-08T23:04:57.864Z,85.23
2023-05-08T23:07:24.310Z,85.50
2023-05-08T23:09:50.856Z,85.35
2023-05-08T23:12:17.264Z,85.31
2023-05-08T23:14:46.550Z,85.29
2023-05-08T23:17:14.111Z,85.33
2023-05-08T23:19:41.515Z,85.65
2023-05-08T23:22:08.983Z,85.50
2023-05-08T23:24:36.185Z,85.83
2023-05-08T23:27:02.877Z,86.06
2023-05-08T23:29:29.593Z,86.40
2023-05-08T23:31:56.186Z,86.94
2023-05-08T23:34:22.852Z,86.49
2023-05-08T23:36:49.468Z,86.95
2023-05-08T23:39:18.567Z,87.44
2023-05-08T23:41:45.304Z,87.37
2023-05-08T23:44:11.996Z,86.70
2023-05-08T23:46:38.586Z,86.72
2023-05-08T23:49:05.700Z,85.99
2023-05-08T23:51:34.188Z,85.99
2023-05-08T23:54:01.100Z,86.35
2023-05-08T23:56:27.745Z,86.45
2023-05-08T23:58:54.381Z,86.87
